sensor_id;sensor_type;location;lat;lon;timestamp;pressure;altitude;pressure_sealevel;temperature;humidity
68107;BME280;54892;47.488;19.026;2023-04-05T00:01:01;100281.22;;;2.48;45.74
68107;BME280;54892;47.488;19.026;2023-04-05T00:04:08;100274.22;;;2.48;45.96
68107;BME280;54892;47.488;19.026;2023-04-05T00:07:11;100265.16;;;2.44;46.13
68107;BME280;54892;47.488;19.026;2023-04-05T00:10:14;100271.00;;;2.46;45.89
68107;BME280;54892;47.488;19.026;2023-04-05T00:13:18;100262.19;;;2.47;46.05
68107;BME280;54892;47.488;19.026;2023-04-05T00:16:22;100266.41;;;2.48;46.33
68107;BME280;54892;47.488;19.026;2023-04-05T00:19:25;100265.16;;;2.44;46.22
68107;BME280;54892;47.488;19.026;2023-04-05T00:22:28;100266.41;;;2.48;46.37
68107;BME280;54892;47.488;19.026;2023-04-05T00:25:32;100261.34;;;2.40;46.39
68107;BME280;54892;47.488;19.026;2023-04-05T00:28:37;100261.94;;;2.42;46.71
68107;BME280;54892;47.488;19.026;2023-04-05T00:31:40;100257.94;;;2.39;46.96
68107;BME280;54892;47.488;19.026;2023-04-05T00:34:43;100254.91;;;2.36;46.92
68107;BME280;54892;47.488;19.026;2023-04-05T00:37:46;100256.75;;;2.42;46.79
68107;BME280;54892;47.488;19.026;2023-04-05T00:40:50;100256.72;;;2.35;47.07
68107;BME280;54892;47.488;19.026;2023-04-05T00:43:54;100258.94;;;2.38;47.09
68107;BME280;54892;47.488;19.026;2023-04-05T00:46:57;100251.09;;;2.32;47.20
68107;BME280;54892;47.488;19.026;2023-04-05T00:50:00;100257.34;;;2.37;47.24
68107;BME280;54892;47.488;19.026;2023-04-05T00:53:03;100257.72;;;2.34;47.32
68107;BME280;54892;47.488;19.026;2023-04-05T00:56:07;100250.87;;;2.26;47.57
68107;BME280;54892;47.488;19.026;2023-04-05T01:02:34;100250.09;;;2.33;47.29
68107;BME280;54892;47.488;19.026;2023-04-05T01:05:46;100251.31;;;2.37;47.23
68107;BME280;54892;47.488;19.026;2023-04-05T01:08:51;100256.34;;;2.38;47.37
68107;BME280;54892;47.488;19.026;2023-04-05T01:11:57;100247.88;;;2.30;47.30
68107;BME280;54892;47.488;19.026;2023-04-05T01:15:03;100245.09;;;2.38;47.33
68107;BME280;54892;47.488;19.026;2023-04-05T01:18:07;100247.50;;;2.33;47.34
68107;BME280;54892;47.488;19.026;2023-04-05T01:21:21;100245.06;;;2.31;47.55
68107;BME280;54892;47.488;19.026;2023-04-05T01:24:31;100242.44;;;2.24;47.92
68107;BME280;54892;47.488;19.026;2023-04-05T01:27:44;100243.06;;;2.26;48.06
68107;BME280;54892;47.488;19.026;2023-04-05T01:30:57;100249.31;;;2.39;48.10
68107;BME280;54892;47.488;19.026;2023-04-05T01:37:21;100245.91;;;2.38;48.23
68107;BME280;54892;47.488;19.026;2023-04-05T01:40:27;100244.50;;;2.42;48.25
68107;BME280;54892;47.488;19.026;2023-04-05T01:43:31;100247.31;;;2.41;48.21
68107;BME280;54892;47.488;19.026;2023-04-05T01:46:36;100238.19;;;2.17;48.40
68107;BME280;54892;47.488;19.026;2023-04-05T01:49:39;100233.59;;;2.19;48.41
68107;BME280;54892;47.488;19.026;2023-04-05T01:52:43;100236.03;;;2.27;48.25
68107;BME280;54892;47.488;19.026;2023-04-05T01:55:45;100238.62;;;2.27;48.33
68107;BME280;54892;47.488;19.026;2023-04-05T01:58:50;100234.97;;;2.15;47.95
68107;BME280;54892;47.488;19.026;2023-04-05T02:01:54;100239.03;;;2.17;48.06
68107;BME280;54892;47.488;19.026;2023-04-05T02:04:57;100239.81;;;2.18;47.87
68107;BME280;54892;47.488;19.026;2023-04-05T02:08:00;100240.16;;;2.08;48.07
68107;BME280;54892;47.488;19.026;2023-04-05T02:11:03;100237.31;;;2.03;48.07
68107;BME280;54892;47.488;19.026;2023-04-05T02:14:06;100231.53;;;2.01;48.26
68107;BME280;54892;47.488;19.026;2023-04-05T02:17:12;100228.44;;;1.90;48.21
68107;BME280;54892;47.488;19.026;2023-04-05T02:20:16;100232.81;;;1.83;48.41
68107;BME280;54892;47.488;19.026;2023-04-05T02:23:19;100235.62;;;1.88;48.75
68107;BME280;54892;47.488;19.026;2023-04-05T02:26:22;100234.50;;;1.97;48.55
68107;BME280;54892;47.488;19.026;2023-04-05T02:29:25;100228.00;;;1.80;49.27
68107;BME280;54892;47.488;19.026;2023-04-05T02:32:29;100227.78;;;1.81;49.28
68107;BME280;54892;47.488;19.026;2023-04-05T02:35:33;100230.34;;;1.75;49.39
68107;BME280;54892;47.488;19.026;2023-04-05T02:38:36;100230.72;;;1.72;49.96
68107;BME280;54892;47.488;19.026;2023-04-05T02:41:40;100225.19;;;1.81;49.76
68107;BME280;54892;47.488;19.026;2023-04-05T02:44:43;100223.13;;;1.70;49.90
68107;BME280;54892;47.488;19.026;2023-04-05T02:47:47;100223.78;;;1.79;49.78
68107;BME280;54892;47.488;19.026;2023-04-05T02:50:50;100222.41;;;1.83;49.98
68107;BME280;54892;47.488;19.026;2023-04-05T02:53:53;100218.31;;;1.67;49.81
68107;BME280;54892;47.488;19.026;2023-04-05T02:56:56;100219.91;;;1.68;50.29
68107;BME280;54892;47.488;19.026;2023-04-05T03:00:02;100224.94;;;1.70;50.42
68107;BME280;54892;47.488;19.026;2023-04-05T03:03:07;100220.37;;;1.78;50.32
68107;BME280;54892;47.488;19.026;2023-04-05T03:06:10;100223.94;;;1.71;50.06
68107;BME280;54892;47.488;19.026;2023-04-05T03:09:13;100229.81;;;1.51;50.42
68107;BME280;54892;47.488;19.026;2023-04-05T03:12:16;100222.00;;;1.51;50.53
68107;BME280;54892;47.488;19.026;2023-04-05T03:15:19;100224.44;;;1.59;50.42
68107;BME280;54892;47.488;19.026;2023-04-05T03:18:24;100225.84;;;1.55;50.39
68107;BME280;54892;47.488;19.026;2023-04-05T03:21:27;100221.72;;;1.39;50.79
68107;BME280;54892;47.488;19.026;2023-04-05T03:24:30;100228.31;;;1.42;50.57
68107;BME280;54892;47.488;19.026;2023-04-05T03:27:33;100228.44;;;1.27;51.08
68107;BME280;54892;47.488;19.026;2023-04-05T03:30:37;100225.12;;;1.40;50.73
68107;BME280;54892;47.488;19.026;2023-04-05T03:33:42;100233.06;;;1.31;50.92
68107;BME280;54892;47.488;19.026;2023-04-05T03:36:46;100237.88;;;1.34;50.95
68107;BME280;54892;47.488;19.026;2023-04-05T03:39:50;100242.09;;;1.35;50.56
68107;BME280;54892;47.488;19.026;2023-04-05T03:42:53;100226.50;;;1.35;50.72
68107;BME280;54892;47.488;19.026;2023-04-05T03:45:56;100229.50;;;1.39;50.84
68107;BME280;54892;47.488;19.026;2023-04-05T03:49:01;100243.34;;;1.40;50.69
68107;BME280;54892;47.488;19.026;2023-04-05T03:52:04;100229.94;;;1.43;50.52
68107;BME280;54892;47.488;19.026;2023-04-05T03:55:07;100240.28;;;1.36;50.62
68107;BME280;54892;47.488;19.026;2023-04-05T03:58:11;100245.13;;;1.39;50.58
68107;BME280;54892;47.488;19.026;2023-04-05T04:01:13;100248.91;;;1.36;50.91
68107;BME280;54892;47.488;19.026;2023-04-05T04:04:18;100250.84;;;1.28;50.74
68107;BME280;54892;47.488;19.026;2023-04-05T04:07:22;100251.25;;;1.31;50.49
68107;BME280;54892;47.488;19.026;2023-04-05T04:10:25;100246.97;;;1.45;50.27
68107;BME280;54892;47.488;19.026;2023-04-05T04:13:28;100249.81;;;1.50;50.15
68107;BME280;54892;47.488;19.026;2023-04-05T04:16:31;100249.47;;;1.60;50.19
68107;BME280;54892;47.488;19.026;2023-04-05T04:19:35;100247.50;;;1.62;49.98
68107;BME280;54892;47.488;19.026;2023-04-05T04:22:39;100248.84;;;1.58;49.85
68107;BME280;54892;47.488;19.026;2023-04-05T04:25:41;100245.47;;;1.58;49.67
68107;BME280;54892;47.488;19.026;2023-04-05T04:28:46;100258.84;;;1.33;49.42
68107;BME280;54892;47.488;19.026;2023-04-05T04:31:49;100253.75;;;1.40;49.60
68107;BME280;54892;47.488;19.026;2023-04-05T04:34:53;100257.19;;;1.47;49.80
68107;BME280;54892;47.488;19.026;2023-04-05T04:37:56;100253.59;;;1.48;49.51
68107;BME280;54892;47.488;19.026;2023-04-05T04:41:04;100251.97;;;1.47;48.92
68107;BME280;54892;47.488;19.026;2023-04-05T04:44:07;100255.31;;;1.62;49.12
68107;BME280;54892;47.488;19.026;2023-04-05T04:47:15;100249.47;;;1.60;48.42
68107;BME280;54892;47.488;19.026;2023-04-05T04:50:19;100253.84;;;1.53;49.02
68107;BME280;54892;47.488;19.026;2023-04-05T04:53:22;100259.22;;;1.51;48.70
68107;BME280;54892;47.488;19.026;2023-04-05T04:56:25;100263.38;;;1.46;49.19
68107;BME280;54892;47.488;19.026;2023-04-05T04:59:28;100271.44;;;1.51;49.02
68107;BME280;54892;47.488;19.026;2023-04-05T05:02:31;100263.09;;;1.62;49.03
68107;BME280;54892;47.488;19.026;2023-04-05T05:05:35;100267.87;;;1.59;48.83
68107;BME280;54892;47.488;19.026;2023-04-05T05:08:43;100271.94;;;1.68;48.89
68107;BME280;54892;47.488;19.026;2023-04-05T05:11:47;100273.75;;;1.67;48.62
68107;BME280;54892;47.488;19.026;2023-04-05T05:14:50;100266.56;;;1.70;48.11
68107;BME280;54892;47.488;19.026;2023-04-05T05:17:53;100268.94;;;1.64;48.64
68107;BME280;54892;47.488;19.026;2023-04-05T05:20:58;100274.25;;;1.85;48.16
68107;BME280;54892;47.488;19.026;2023-04-05T05:24:01;100272.00;;;2.10;47.39
68107;BME280;54892;47.488;19.026;2023-04-05T05:27:03;100277.22;;;2.10;47.02
68107;BME280;54892;47.488;19.026;2023-04-05T05:30:07;100278.97;;;2.38;46.69
68107;BME280;54892;47.488;19.026;2023-04-05T05:33:10;100283.69;;;2.63;45.92
68107;BME280;54892;47.488;19.026;2023-04-05T05:36:14;100290.28;;;2.58;45.40
68107;BME280;54892;47.488;19.026;2023-04-05T05:39:17;100274.37;;;2.40;45.57
68107;BME280;54892;47.488;19.026;2023-04-05T05:42:20;100278.28;;;2.71;45.01
68107;BME280;54892;47.488;19.026;2023-04-05T05:45:24;100273.56;;;3.08;44.44
68107;BME280;54892;47.488;19.026;2023-04-05T05:48:27;100278.19;;;3.66;42.84
68107;BME280;54892;47.488;19.026;2023-04-05T05:51:32;100278.78;;;4.54;40.55
68107;BME280;54892;47.488;19.026;2023-04-05T05:54:35;100275.50;;;5.37;39.00
68107;BME280;54892;47.488;19.026;2023-04-05T05:57:38;100284.97;;;6.25;36.46
68107;BME280;54892;47.488;19.026;2023-04-05T06:00:42;100264.97;;;7.46;34.25
68107;BME280;54892;47.488;19.026;2023-04-05T06:03:45;100270.72;;;8.32;33.23
68107;BME280;54892;47.488;19.026;2023-04-05T06:06:50;100269.91;;;9.18;31.03
68107;BME280;54892;47.488;19.026;2023-04-05T06:09:52;100276.16;;;8.42;30.63
68107;BME280;54892;47.488;19.026;2023-04-05T06:12:55;100262.28;;;8.47;31.12
68107;BME280;54892;47.488;19.026;2023-04-05T06:15:59;100279.81;;;8.41;30.84
68107;BME280;54892;47.488;19.026;2023-04-05T06:19:02;100272.72;;;7.65;32.21
68107;BME280;54892;47.488;19.026;2023-04-05T06:22:07;100277.97;;;7.65;32.56
68107;BME280;54892;47.488;19.026;2023-04-05T06:25:09;100278.91;;;8.47;31.47
68107;BME280;54892;47.488;19.026;2023-04-05T06:28:13;100281.37;;;7.42;32.28
68107;BME280;54892;47.488;19.026;2023-04-05T06:31:18;100274.97;;;7.97;32.05
68107;BME280;54892;47.488;19.026;2023-04-05T06:34:22;100287.47;;;7.90;31.97
68107;BME280;54892;47.488;19.026;2023-04-05T06:37:26;100281.06;;;7.74;33.23
68107;BME280;54892;47.488;19.026;2023-04-05T06:40:29;100288.16;;;7.07;33.69
68107;BME280;54892;47.488;19.026;2023-04-05T06:43:32;100292.25;;;6.91;33.79
68107;BME280;54892;47.488;19.026;2023-04-05T06:46:36;100294.03;;;7.33;33.53
68107;BME280;54892;47.488;19.026;2023-04-05T06:49:39;100282.91;;;8.38;31.72
68107;BME280;54892;47.488;19.026;2023-04-05T06:52:43;100290.28;;;7.41;32.93
68107;BME280;54892;47.488;19.026;2023-04-05T06:55:47;100290.50;;;8.92;30.85
68107;BME280;54892;47.488;19.026;2023-04-05T06:58:51;100286.22;;;9.03;30.43
68107;BME280;54892;47.488;19.026;2023-04-05T07:01:54;100285.13;;;9.16;30.62
68107;BME280;54892;47.488;19.026;2023-04-05T07:04:57;100290.47;;;10.12;29.05
68107;BME280;54892;47.488;19.026;2023-04-05T07:08:06;100288.28;;;11.03;27.75
68107;BME280;54892;47.488;19.026;2023-04-05T07:11:11;100292.44;;;11.21;26.88
68107;BME280;54892;47.488;19.026;2023-04-05T07:14:14;100288.84;;;12.23;25.76
68107;BME280;54892;47.488;19.026;2023-04-05T07:17:17;100293.66;;;12.47;24.75
68107;BME280;54892;47.488;19.026;2023-04-05T07:20:20;100288.81;;;12.18;25.08
68107;BME280;54892;47.488;19.026;2023-04-05T07:23:24;100285.41;;;12.28;24.60
68107;BME280;54892;47.488;19.026;2023-04-05T07:26:27;100285.56;;;13.00;24.32
68107;BME280;54892;47.488;19.026;2023-04-05T07:29:30;100284.78;;;13.36;23.05
68107;BME280;54892;47.488;19.026;2023-04-05T07:32:33;100286.00;;;12.45;24.14
68107;BME280;54892;47.488;19.026;2023-04-05T07:35:36;100279.47;;;12.84;24.11
68107;BME280;54892;47.488;19.026;2023-04-05T07:38:40;100289.09;;;12.27;24.14
68107;BME280;54892;47.488;19.026;2023-04-05T07:41:44;100286.22;;;11.42;25.37
68107;BME280;54892;47.488;19.026;2023-04-05T07:44:47;100282.56;;;12.45;24.43
68107;BME280;54892;47.488;19.026;2023-04-05T07:47:50;100282.47;;;11.71;24.45
68107;BME280;54892;47.488;19.026;2023-04-05T07:50:53;100285.56;;;11.25;25.19
68107;BME280;54892;47.488;19.026;2023-04-05T07:53:58;100283.63;;;12.44;24.37
68107;BME280;54892;47.488;19.026;2023-04-05T07:57:03;100278.47;;;12.11;24.49
68107;BME280;54892;47.488;19.026;2023-04-05T08:00:08;100288.69;;;11.17;25.48
68107;BME280;54892;47.488;19.026;2023-04-05T08:03:13;100285.66;;;11.35;26.14
68107;BME280;54892;47.488;19.026;2023-04-05T08:06:16;100281.28;;;9.58;27.94
68107;BME280;54892;47.488;19.026;2023-04-05T08:09:20;100274.09;;;8.85;29.45
68107;BME280;54892;47.488;19.026;2023-04-05T08:12:24;100268.66;;;8.92;29.42
68107;BME280;54892;47.488;19.026;2023-04-05T08:15:27;100273.00;;;8.69;29.57
68107;BME280;54892;47.488;19.026;2023-04-05T08:18:30;100269.31;;;8.29;30.18
68107;BME280;54892;47.488;19.026;2023-04-05T08:21:33;100278.50;;;8.03;31.41
68107;BME280;54892;47.488;19.026;2023-04-05T08:24:37;100270.91;;;7.77;32.57
68107;BME280;54892;47.488;19.026;2023-04-05T08:27:40;100265.41;;;7.79;31.94
68107;BME280;54892;47.488;19.026;2023-04-05T08:30:43;100269.12;;;7.12;33.85
68107;BME280;54892;47.488;19.026;2023-04-05T08:33:47;100265.13;;;7.09;33.38
68107;BME280;54892;47.488;19.026;2023-04-05T08:36:50;100271.78;;;7.36;33.25
68107;BME280;54892;47.488;19.026;2023-04-05T08:39:54;100262.44;;;7.64;32.19
68107;BME280;54892;47.488;19.026;2023-04-05T08:43:02;100257.28;;;7.33;32.79
68107;BME280;54892;47.488;19.026;2023-04-05T08:46:09;100262.03;;;7.00;33.78
68107;BME280;54892;47.488;19.026;2023-04-05T08:49:17;100255.13;;;6.76;34.10
68107;BME280;54892;47.488;19.026;2023-04-05T08:52:19;100255.56;;;6.73;34.23
68107;BME280;54892;47.488;19.026;2023-04-05T08:55:24;100257.22;;;6.97;34.07
68107;BME280;54892;47.488;19.026;2023-04-05T08:58:27;100250.25;;;7.03;33.35
68107;BME280;54892;47.488;19.026;2023-04-05T09:01:31;100256.44;;;6.97;33.73
68107;BME280;54892;47.488;19.026;2023-04-05T09:04:36;100256.25;;;6.80;33.97
68107;BME280;54892;47.488;19.026;2023-04-05T09:07:40;100242.88;;;7.24;33.39
68107;BME280;54892;47.488;19.026;2023-04-05T09:10:44;100245.00;;;6.61;34.75
68107;BME280;54892;47.488;19.026;2023-04-05T09:13:47;100245.41;;;6.76;34.34
68107;BME280;54892;47.488;19.026;2023-04-05T09:16:50;100238.25;;;6.22;35.77
68107;BME280;54892;47.488;19.026;2023-04-05T09:19:54;100243.00;;;6.44;35.64
68107;BME280;54892;47.488;19.026;2023-04-05T09:22:57;100246.56;;;6.50;36.33
68107;BME280;54892;47.488;19.026;2023-04-05T09:26:01;100244.84;;;6.44;35.54
68107;BME280;54892;47.488;19.026;2023-04-05T09:29:27;100248.31;;;6.37;35.68
68107;BME280;54892;47.488;19.026;2023-04-05T09:32:31;100248.31;;;6.56;35.87
68107;BME280;54892;47.488;19.026;2023-04-05T09:35:35;100239.41;;;6.99;34.41
68107;BME280;54892;47.488;19.026;2023-04-05T09:38:41;100233.87;;;7.08;34.35
68107;BME280;54892;47.488;19.026;2023-04-05T09:41:58;100234.44;;;7.22;35.09
68107;BME280;54892;47.488;19.026;2023-04-05T09:45:05;100230.72;;;6.57;35.28
68107;BME280;54892;47.488;19.026;2023-04-05T09:48:09;100231.44;;;7.06;34.82
68107;BME280;54892;47.488;19.026;2023-04-05T09:51:13;100231.88;;;6.91;35.27
68107;BME280;54892;47.488;19.026;2023-04-05T09:54:16;100227.84;;;6.77;35.84
68107;BME280;54892;47.488;19.026;2023-04-05T09:57:20;100221.16;;;6.93;35.08
68107;BME280;54892;47.488;19.026;2023-04-05T10:00:24;100222.00;;;7.41;34.26
68107;BME280;54892;47.488;19.026;2023-04-05T10:03:28;100216.44;;;7.61;33.85
68107;BME280;54892;47.488;19.026;2023-04-05T10:06:34;100211.69;;;7.87;34.79
68107;BME280;54892;47.488;19.026;2023-04-05T10:09:38;100213.78;;;7.61;33.41
68107;BME280;54892;47.488;19.026;2023-04-05T10:12:43;100203.50;;;7.47;33.15
68107;BME280;54892;47.488;19.026;2023-04-05T10:15:48;100213.19;;;6.99;31.87
68107;BME280;54892;47.488;19.026;2023-04-05T10:18:51;100211.50;;;7.29;33.41
68107;BME280;54892;47.488;19.026;2023-04-05T10:21:54;100208.62;;;7.07;33.63
68107;BME280;54892;47.488;19.026;2023-04-05T10:25:01;100213.22;;;7.35;35.21
68107;BME280;54892;47.488;19.026;2023-04-05T10:28:09;100207.38;;;7.33;34.41
68107;BME280;54892;47.488;19.026;2023-04-05T10:31:16;100200.88;;;7.24;34.78
68107;BME280;54892;47.488;19.026;2023-04-05T10:34:33;100194.62;;;7.37;36.08
68107;BME280;54892;47.488;19.026;2023-04-05T10:37:45;100196.44;;;7.60;34.74
68107;BME280;54892;47.488;19.026;2023-04-05T10:40:52;100187.81;;;7.88;34.16
68107;BME280;54892;47.488;19.026;2023-04-05T10:43:57;100187.81;;;7.88;33.23
68107;BME280;54892;47.488;19.026;2023-04-05T10:47:01;100190.44;;;7.88;33.73
68107;BME280;54892;47.488;19.026;2023-04-05T10:50:06;100193.66;;;7.78;33.59
68107;BME280;54892;47.488;19.026;2023-04-05T10:53:10;100183.88;;;7.38;33.70
68107;BME280;54892;47.488;19.026;2023-04-05T10:56:14;100184.56;;;7.45;33.97
68107;BME280;54892;47.488;19.026;2023-04-05T10:59:19;100189.34;;;7.25;33.72
68107;BME280;54892;47.488;19.026;2023-04-05T11:02:22;100184.00;;;7.31;34.66
68107;BME280;54892;47.488;19.026;2023-04-05T11:05:29;100182.28;;;7.25;34.94
68107;BME280;54892;47.488;19.026;2023-04-05T11:08:33;100181.38;;;7.31;33.32
68107;BME280;54892;47.488;19.026;2023-04-05T11:11:37;100186.63;;;7.43;32.88
68107;BME280;54892;47.488;19.026;2023-04-05T11:14:41;100172.56;;;7.14;33.03
68107;BME280;54892;47.488;19.026;2023-04-05T11:17:56;100177.69;;;7.56;34.16
68107;BME280;54892;47.488;19.026;2023-04-05T11:21:04;100173.81;;;7.35;35.13
68107;BME280;54892;47.488;19.026;2023-04-05T11:24:08;100179.87;;;7.36;34.33
68107;BME280;54892;47.488;19.026;2023-04-05T11:27:12;100165.91;;;7.71;35.05
68107;BME280;54892;47.488;19.026;2023-04-05T11:30:21;100169.81;;;7.68;33.09
68107;BME280;54892;47.488;19.026;2023-04-05T11:33:53;100164.91;;;7.36;32.68
68107;BME280;54892;47.488;19.026;2023-04-05T11:36:57;100168.44;;;7.54;33.37
68107;BME280;54892;47.488;19.026;2023-04-05T11:43:17;100166.06;;;7.40;32.75
68107;BME280;54892;47.488;19.026;2023-04-05T11:46:22;100151.41;;;7.56;32.04
68107;BME280;54892;47.488;19.026;2023-04-05T11:49:33;100156.00;;;7.61;31.60
68107;BME280;54892;47.488;19.026;2023-04-05T11:52:36;100155.66;;;7.57;32.69
68107;BME280;54892;47.488;19.026;2023-04-05T11:55:39;100146.31;;;7.38;34.24
68107;BME280;54892;47.488;19.026;2023-04-05T11:58:42;100145.41;;;7.32;32.59
68107;BME280;54892;47.488;19.026;2023-04-05T12:01:47;100135.81;;;7.38;32.46
68107;BME280;54892;47.488;19.026;2023-04-05T12:04:59;100143.78;;;7.55;32.92
68107;BME280;54892;47.488;19.026;2023-04-05T12:08:02;100140.25;;;7.61;33.97
68107;BME280;54892;47.488;19.026;2023-04-05T12:11:05;100130.41;;;7.56;32.96
68107;BME280;54892;47.488;19.026;2023-04-05T12:14:08;100141.16;;;7.55;31.87
68107;BME280;54892;47.488;19.026;2023-04-05T12:17:12;100139.88;;;7.57;31.99
68107;BME280;54892;47.488;19.026;2023-04-05T12:20:15;100136.91;;;7.77;31.57
68107;BME280;54892;47.488;19.026;2023-04-05T12:23:20;100132.09;;;7.74;32.29
68107;BME280;54892;47.488;19.026;2023-04-05T12:26:23;100129.06;;;7.95;31.58
68107;BME280;54892;47.488;19.026;2023-04-05T12:29:27;100135.81;;;8.19;30.71
68107;BME280;54892;47.488;19.026;2023-04-05T12:32:35;100131.59;;;8.18;29.87
68107;BME280;54892;47.488;19.026;2023-04-05T12:35:39;100122.53;;;7.97;29.66
68107;BME280;54892;47.488;19.026;2023-04-05T12:38:42;100119.25;;;7.90;29.22
68107;BME280;54892;47.488;19.026;2023-04-05T12:41:54;100123.66;;;8.01;28.91
68107;BME280;54892;47.488;19.026;2023-04-05T12:45:01;100110.28;;;8.03;30.23
68107;BME280;54892;47.488;19.026;2023-04-05T12:48:08;100116.53;;;8.14;29.87
68107;BME280;54892;47.488;19.026;2023-04-05T12:51:15;100119.28;;;8.36;28.94
68107;BME280;54892;47.488;19.026;2023-04-05T12:54:19;100110.03;;;8.33;29.34
68107;BME280;54892;47.488;19.026;2023-04-05T12:57:28;100106.09;;;8.19;29.80
68107;BME280;54892;47.488;19.026;2023-04-05T13:00:31;100107.47;;;8.21;28.99
68107;BME280;54892;47.488;19.026;2023-04-05T13:03:35;100106.09;;;8.19;29.44
68107;BME280;54892;47.488;19.026;2023-04-05T13:06:38;100101.66;;;8.48;29.48
68107;BME280;54892;47.488;19.026;2023-04-05T13:09:41;100101.00;;;8.58;29.35
68107;BME280;54892;47.488;19.026;2023-04-05T13:12:44;100094.84;;;8.52;29.70
68107;BME280;54892;47.488;19.026;2023-04-05T13:15:47;100098.78;;;8.84;29.65
68107;BME280;54892;47.488;19.026;2023-04-05T13:18:52;100095.13;;;8.22;29.34
68107;BME280;54892;47.488;19.026;2023-04-05T13:21:55;100088.22;;;8.33;29.14
68107;BME280;54892;47.488;19.026;2023-04-05T13:24:58;100093.59;;;8.26;28.74
68107;BME280;54892;47.488;19.026;2023-04-05T13:28:01;100097.91;;;8.32;28.87
68107;BME280;54892;47.488;19.026;2023-04-05T13:31:04;100085.06;;;8.48;29.17
68107;BME280;54892;47.488;19.026;2023-04-05T13:34:10;100088.56;;;8.71;28.96
68107;BME280;54892;47.488;19.026;2023-04-05T13:37:13;100084.66;;;8.56;28.98
68107;BME280;54892;47.488;19.026;2023-04-05T13:40:16;100085.72;;;8.55;29.71
68107;BME280;54892;47.488;19.026;2023-04-05T13:43:19;100074.84;;;8.51;29.18
68107;BME280;54892;47.488;19.026;2023-04-05T13:46:22;100083.94;;;8.61;29.75
68107;BME280;54892;47.488;19.026;2023-04-05T13:49:26;100070.87;;;8.49;28.65
68107;BME280;54892;47.488;19.026;2023-04-05T13:52:29;100070.41;;;8.52;29.29
68107;BME280;54892;47.488;19.026;2023-04-05T13:55:32;100071.56;;;8.61;28.99
68107;BME280;54892;47.488;19.026;2023-04-05T13:58:36;100073.66;;;8.76;29.52
68107;BME280;54892;47.488;19.026;2023-04-05T14:05:01;100071.44;;;8.51;29.70
68107;BME280;54892;47.488;19.026;2023-04-05T14:08:04;100062.81;;;8.56;29.92
68107;BME280;54892;47.488;19.026;2023-04-05T14:11:07;100074.16;;;8.56;29.55
68107;BME280;54892;47.488;19.026;2023-04-05T14:14:10;100072.94;;;8.81;29.40
68107;BME280;54892;47.488;19.026;2023-04-05T14:17:13;100073.00;;;8.86;29.24
68107;BME280;54892;47.488;19.026;2023-04-05T14:20:18;100068.28;;;8.88;29.10
68107;BME280;54892;47.488;19.026;2023-04-05T14:23:20;100076.12;;;8.66;29.26
68107;BME280;54892;47.488;19.026;2023-04-05T14:26:24;100070.22;;;8.59;29.16
68107;BME280;54892;47.488;19.026;2023-04-05T14:29:27;100068.69;;;8.46;29.84
68107;BME280;54892;47.488;19.026;2023-04-05T14:32:30;100072.91;;;8.47;30.57
68107;BME280;54892;47.488;19.026;2023-04-05T14:35:35;100074.84;;;8.51;29.63
68107;BME280;54892;47.488;19.026;2023-04-05T14:38:38;100066.94;;;8.34;30.03
68107;BME280;54892;47.488;19.026;2023-04-05T14:41:41;100066.34;;;8.15;30.80
68107;BME280;54892;47.488;19.026;2023-04-05T14:44:44;100075.03;;;8.16;30.55
68107;BME280;54892;47.488;19.026;2023-04-05T14:47:47;100077.16;;;8.02;30.39
68107;BME280;54892;47.488;19.026;2023-04-05T14:50:51;100077.94;;;8.02;30.38
68107;BME280;54892;47.488;19.026;2023-04-05T14:53:54;100074.94;;;8.11;30.60
68107;BME280;54892;47.488;19.026;2023-04-05T14:56:57;100070.56;;;8.16;30.32
68107;BME280;54892;47.488;19.026;2023-04-05T15:00:00;100076.00;;;8.10;30.46
68107;BME280;54892;47.488;19.026;2023-04-05T15:03:03;100067.91;;;7.99;30.27
68107;BME280;54892;47.488;19.026;2023-04-05T15:06:08;100073.22;;;8.16;31.20
68107;BME280;54892;47.488;19.026;2023-04-05T15:09:11;100069.88;;;8.21;30.57
68107;BME280;54892;47.488;19.026;2023-04-05T15:12:15;100072.19;;;8.34;30.92
68107;BME280;54892;47.488;19.026;2023-04-05T15:15:18;100071.31;;;8.46;31.34
68107;BME280;54892;47.488;19.026;2023-04-05T15:18:21;100075.69;;;8.40;30.60
68107;BME280;54892;47.488;19.026;2023-04-05T15:21:26;100074.34;;;8.37;30.82
68107;BME280;54892;47.488;19.026;2023-04-05T15:24:28;100074.00;;;8.34;30.26
68107;BME280;54892;47.488;19.026;2023-04-05T15:27:31;100082.03;;;8.27;30.45
68107;BME280;54892;47.488;19.026;2023-04-05T15:30:34;100068.84;;;8.39;30.56
68107;BME280;54892;47.488;19.026;2023-04-05T15:33:37;100073.06;;;8.40;30.44
68107;BME280;54892;47.488;19.026;2023-04-05T15:36:42;100069.00;;;8.32;30.50
68107;BME280;54892;47.488;19.026;2023-04-05T15:39:45;100076.97;;;8.37;30.51
68107;BME280;54892;47.488;19.026;2023-04-05T15:42:48;100075.19;;;8.55;30.26
68107;BME280;54892;47.488;19.026;2023-04-05T15:45:51;100069.97;;;8.43;30.10
68107;BME280;54892;47.488;19.026;2023-04-05T15:48:54;100077.44;;;8.34;29.56
68107;BME280;54892;47.488;19.026;2023-04-05T15:51:58;100076.00;;;8.44;30.33
68107;BME280;54892;47.488;19.026;2023-04-05T15:55:02;100074.06;;;8.51;29.96
68107;BME280;54892;47.488;19.026;2023-04-05T15:58:05;100082.81;;;8.57;29.93
68107;BME280;54892;47.488;19.026;2023-04-05T16:01:08;100072.22;;;8.51;28.95
68107;BME280;54892;47.488;19.026;2023-04-05T16:04:11;100087.66;;;8.31;29.33
68107;BME280;54892;47.488;19.026;2023-04-05T16:07:15;100083.72;;;8.16;29.42
68107;BME280;54892;47.488;19.026;2023-04-05T16:10:18;100080.84;;;8.18;30.12
68107;BME280;54892;47.488;19.026;2023-04-05T16:13:21;100088.97;;;8.16;29.48
68107;BME280;54892;47.488;19.026;2023-04-05T16:16:24;100088.75;;;8.18;29.60